Grand Tower, Illinois
Current Conditions -  °F | °C
As of 3:36 AM on Friday 24 Oct 2014 (Local Time) from KMDH Reporting Station
Broken Clouds Broken Clouds  
Wind Chill: 45°   Ceiling: 2800
Heat Index: 45°   Visibility: 10mi
Dew Point: 43°   Wind: 3mph
Humidity: 93%   Direction: 160°SSE
Pressure: 30.1"   Gusts: NA
Location:  37.63°N, 89.5°W
Report Text: KMDH 240836Z AUTO 16003KT 10SM BKN028 BKN043 07/06 A3010 RMK AO2 T00720061
Loading
Personal Weather Stations






























Interactive Weather Map
Tropical Storm Tracking
New forecast layout! Learn more

10-Day Weather Forecast

Advertisements
Track Severe Weather on mobile